createdAt,value
2017-12-02T00:00:48.341Z,1.81
2017-12-02T00:01:58.071Z,1.81
2017-12-02T00:03:07.791Z,1.77
2017-12-02T00:04:17.515Z,1.83
2017-12-02T00:05:27.536Z,1.72
2017-12-02T00:06:37.549Z,1.65
2017-12-02T00:07:47.000Z,1.65
2017-12-02T00:08:56.780Z,1.7
2017-12-02T00:10:06.502Z,1.64
2017-12-02T00:11:16.128Z,1.67
2017-12-02T00:12:25.918Z,1.68
2017-12-02T00:13:35.911Z,1.67
2017-12-02T00:14:45.894Z,1.67
2017-12-02T00:15:55.165Z,1.54
2017-12-02T00:17:04.882Z,1.67
2017-12-02T00:18:14.754Z,1.65
2017-12-02T00:19:24.528Z,1.67
2017-12-02T00:20:34.601Z,1.68
2017-12-02T00:21:44.699Z,1.64
2017-12-02T00:22:54.694Z,1.63
2017-12-02T00:24:04.155Z,1.64
2017-12-02T00:25:14.152Z,1.63
2017-12-02T00:26:24.219Z,1.54
2017-12-02T00:27:33.949Z,1.49
2017-12-02T00:28:43.678Z,1.53
2017-12-02T00:29:53.406Z,1.47
2017-12-02T00:31:03.130Z,1.47
2017-12-02T00:32:12.861Z,1.44
2017-12-02T00:33:22.595Z,1.38
2017-12-02T00:34:32.316Z,1.47
2017-12-02T00:35:42.045Z,1.42
2017-12-02T00:36:51.768Z,1.43
2017-12-02T00:38:01.756Z,1.42
2017-12-02T00:39:11.533Z,1.39
2017-12-02T00:40:21.531Z,1.34
2017-12-02T00:41:31.645Z,1.39
2017-12-02T00:42:41.378Z,1.34
2017-12-02T00:43:51.104Z,1.31
2017-12-02T00:45:00.846Z,1.34
2017-12-02T00:46:10.587Z,1.26
2017-12-02T00:47:20.580Z,1.35
2017-12-02T00:48:29.815Z,1.26
2017-12-02T00:49:39.557Z,1.38
2017-12-02T00:50:49.294Z,1.36
2017-12-02T00:51:59.297Z,1.32
2017-12-02T00:53:09.109Z,1.32
2017-12-02T00:54:18.931Z,1.36
2017-12-02T00:55:28.950Z,1.36
2017-12-02T00:56:38.685Z,1.39
2017-12-02T00:57:48.689Z,1.47
2017-12-02T00:58:58.494Z,1.49
2017-12-02T01:00:08.251Z,1.46
2017-12-02T01:01:18.050Z,1.5
2017-12-02T01:02:27.543Z,1.52
2017-12-02T01:03:37.532Z,1.46
2017-12-02T01:04:47.252Z,1.49
2017-12-02T01:05:56.981Z,1.52
2017-12-02T01:07:06.974Z,1.5
2017-12-02T01:08:16.988Z,1.57
2017-12-02T01:09:27.010Z,1.54
2017-12-02T01:10:37.004Z,1.61
2017-12-02T01:11:46.723Z,1.57
2017-12-02T01:12:56.705Z,1.57
2017-12-02T01:14:06.691Z,1.53
2017-12-02T01:15:16.709Z,1.49
2017-12-02T01:16:26.758Z,1.47
2017-12-02T01:17:36.938Z,1.5
2017-12-02T01:18:46.961Z,1.46
2017-12-02T01:19:56.798Z,1.46
2017-12-02T01:21:06.298Z,1.49
2017-12-02T01:22:16.314Z,1.47
2017-12-02T01:23:26.362Z,1.52
2017-12-02T01:24:36.357Z,1.49
2017-12-02T01:25:46.080Z,1.5
2017-12-02T01:26:55.804Z,1.49
2017-12-02T01:28:05.311Z,1.47
2017-12-02T01:29:14.501Z,1.47
2017-12-02T01:30:24.490Z,1.53
2017-12-02T01:31:34.214Z,1.57
2017-12-02T01:32:44.212Z,1.54
2017-12-02T01:33:53.945Z,1.63
2017-12-02T01:35:03.941Z,1.65
2017-12-02T01:36:13.940Z,1.68
2017-12-02T01:37:23.932Z,1.64
2017-12-02T01:38:33.680Z,1.67
2017-12-02T01:39:43.435Z,1.67
2017-12-02T01:40:52.913Z,1.77
2017-12-02T01:42:02.912Z,1.77
2017-12-02T01:43:12.636Z,1.79
2017-12-02T01:44:22.375Z,1.81
2017-12-02T01:45:31.856Z,1.79
2017-12-02T01:46:41.722Z,1.77
2017-12-02T01:47:51.738Z,1.75
2017-12-02T01:49:01.464Z,1.85
2017-12-02T01:50:11.549Z,1.75
2017-12-02T01:51:21.413Z,1.81
2017-12-02T01:52:31.134Z,1.67
2017-12-02T01:53:40.940Z,1.7
2017-12-02T01:54:50.933Z,1.57
2017-12-02T01:56:00.923Z,1.5
2017-12-02T01:57:10.648Z,1.52
2017-12-02T01:58:20.374Z,1.47
2017-12-02T01:59:30.621Z,1.49
2017-12-02T02:00:40.609Z,1.49
2017-12-02T02:01:50.357Z,1.52
2017-12-02T02:03:00.108Z,1.44
2017-12-02T02:04:10.129Z,1.47
2017-12-02T02:05:20.123Z,1.43
2017-12-02T02:06:29.859Z,1.49
2017-12-02T02:07:39.853Z,1.52
2017-12-02T02:08:49.878Z,1.53
2017-12-02T02:09:59.355Z,1.57
2017-12-02T02:11:09.219Z,1.53
2017-12-02T02:12:19.261Z,1.53
2017-12-02T02:13:29.017Z,1.49
2017-12-02T02:14:39.075Z,1.52
2017-12-02T02:15:48.614Z,1.47
2017-12-02T02:16:58.345Z,1.52
2017-12-02T02:18:08.161Z,1.54
2017-12-02T02:19:17.907Z,1.64
2017-12-02T02:20:27.631Z,1.57
2017-12-02T02:21:37.644Z,1.53
2017-12-02T02:22:47.377Z,1.5
2017-12-02T02:23:56.875Z,1.65
2017-12-02T02:25:06.609Z,1.6
2017-12-02T02:26:16.115Z,1.65
2017-12-02T02:27:25.933Z,1.68
2017-12-02T02:28:35.414Z,1.64
2017-12-02T02:29:45.414Z,1.72
2017-12-02T02:30:55.420Z,1.74
2017-12-02T02:32:05.436Z,1.72
2017-12-02T02:33:15.455Z,1.83
2017-12-02T02:34:25.485Z,1.72
2017-12-02T02:35:35.228Z,1.79
2017-12-02T02:36:44.713Z,1.77
2017-12-02T02:37:54.190Z,1.72
2017-12-02T02:39:03.654Z,1.83
2017-12-02T02:40:13.659Z,1.79
2017-12-02T02:41:23.398Z,1.75
2017-12-02T02:42:32.866Z,1.79
2017-12-02T02:43:42.864Z,1.67
2017-12-02T02:44:52.623Z,1.67
2017-12-02T02:46:02.096Z,1.65
2017-12-02T02:47:11.838Z,1.68
2017-12-02T02:48:21.831Z,1.68
2017-12-02T02:49:31.297Z,1.65
2017-12-02T02:50:41.052Z,1.64
2017-12-02T02:51:51.064Z,1.67
2017-12-02T02:53:01.091Z,1.56
2017-12-02T02:54:11.099Z,1.5
2017-12-02T02:55:20.833Z,1.42
2017-12-02T02:56:30.559Z,1.44
2017-12-02T02:57:40.285Z,1.42
2017-12-02T02:58:50.013Z,1.42
2017-12-02T02:59:59.996Z,1.38
2017-12-02T03:01:09.462Z,1.43
2017-12-02T03:02:19.207Z,1.29
2017-12-02T03:03:29.211Z,1.32
2017-12-02T03:04:39.289Z,1.42
2017-12-02T03:05:49.146Z,1.46
2017-12-02T03:06:59.009Z,1.38
2017-12-02T03:08:08.562Z,1.38
2017-12-02T03:09:18.242Z,1.39
2017-12-02T03:10:28.352Z,1.46
2017-12-02T03:11:38.315Z,1.43
2017-12-02T03:12:48.484Z,1.39
2017-12-02T03:13:58.138Z,1.39
2017-12-02T03:15:07.949Z,1.39
2017-12-02T03:16:17.840Z,1.38
2017-12-02T03:17:27.411Z,1.43
2017-12-02T03:18:37.571Z,1.36
2017-12-02T03:19:47.466Z,1.32
2017-12-02T03:20:57.601Z,1.35
2017-12-02T03:22:07.676Z,1.44
2017-12-02T03:23:17.286Z,1.42
2017-12-02T03:24:26.649Z,1.38
2017-12-02T03:25:36.237Z,1.35
2017-12-02T03:26:46.602Z,1.38
2017-12-02T03:27:56.685Z,1.47
2017-12-02T03:29:06.564Z,1.49
2017-12-02T03:30:16.236Z,1.52
2017-12-02T03:31:26.099Z,1.53
2017-12-02T03:32:36.145Z,1.57
2017-12-02T03:33:45.670Z,1.57
2017-12-02T03:34:55.561Z,1.56
2017-12-02T03:36:05.617Z,1.57
2017-12-02T03:37:15.197Z,1.44
2017-12-02T03:38:24.748Z,1.47
2017-12-02T03:39:34.066Z,1.39
2017-12-02T03:40:43.695Z,1.44
2017-12-02T03:41:53.496Z,1.26
2017-12-02T03:43:03.078Z,1.39
2017-12-02T03:44:12.640Z,1.43
2017-12-02T03:45:22.527Z,1.47
2017-12-02T03:46:32.637Z,1.39
2017-12-02T03:47:42.203Z,1.47
2017-12-02T03:48:52.526Z,1.5
2017-12-02T03:50:01.848Z,1.53
2017-12-02T03:51:11.697Z,1.57
2017-12-02T03:52:21.318Z,1.65
2017-12-02T03:53:30.846Z,1.68
2017-12-02T03:54:40.645Z,1.67
2017-12-02T03:55:50.209Z,1.67
2017-12-02T03:57:00.393Z,1.81
2017-12-02T03:58:09.970Z,1.75
2017-12-02T03:59:20.154Z,1.79
2017-12-02T04:00:30.377Z,1.85
2017-12-02T04:01:39.723Z,1.83
2017-12-02T04:02:49.358Z,1.83
2017-12-02T04:03:59.450Z,1.85
2017-12-02T04:05:09.071Z,1.77
2017-12-02T04:06:18.931Z,1.72
2017-12-02T04:07:28.592Z,1.68
2017-12-02T04:08:37.975Z,1.74
2017-12-02T04:09:48.163Z,1.83
2017-12-02T04:10:58.633Z,1.75
2017-12-02T04:12:08.291Z,1.85
2017-12-02T04:13:18.035Z,1.81
2017-12-02T04:14:28.248Z,1.72
2017-12-02T04:15:37.928Z,1.79
2017-12-02T04:16:48.000Z,1.81
2017-12-02T04:17:57.363Z,1.83
2017-12-02T04:19:07.019Z,1.93
2017-12-02T04:20:17.163Z,1.85
2017-12-02T04:21:26.475Z,1.83
2017-12-02T04:22:36.387Z,1.9
2017-12-02T04:23:46.275Z,1.9
2017-12-02T04:24:56.115Z,1.86
2017-12-02T04:26:06.061Z,1.81
2017-12-02T04:27:16.208Z,1.81
2017-12-02T04:28:25.836Z,1.85
2017-12-02T04:29:35.428Z,1.83
2017-12-02T04:30:45.564Z,1.75
2017-12-02T04:31:55.620Z,1.72
2017-12-02T04:33:05.289Z,1.79
2017-12-02T04:34:15.537Z,1.79
2017-12-02T04:35:25.125Z,1.75
2017-12-02T04:36:34.686Z,1.65
2017-12-02T04:37:44.600Z,1.65
2017-12-02T04:38:54.252Z,1.67
2017-12-02T04:40:03.633Z,1.67
2017-12-02T04:41:13.318Z,1.54
2017-12-02T04:42:22.610Z,1.56
2017-12-02T04:43:32.724Z,1.53
2017-12-02T04:44:42.375Z,1.5
2017-12-02T04:45:52.231Z,1.43
2017-12-02T04:47:01.787Z,1.43
2017-12-02T04:48:11.303Z,1.36
2017-12-02T04:49:20.885Z,1.38
2017-12-02T04:50:30.140Z,1.46
2017-12-02T04:51:40.296Z,1.38
2017-12-02T04:52:49.931Z,1.34
2017-12-02T04:53:59.832Z,1.46
2017-12-02T04:55:09.708Z,1.35
2017-12-02T04:56:19.493Z,1.39
2017-12-02T04:57:28.780Z,1.38
2017-12-02T04:58:38.301Z,1.42
2017-12-02T04:59:48.209Z,1.47
2017-12-02T05:00:58.004Z,1.43
2017-12-02T05:02:07.490Z,1.43
2017-12-02T05:03:17.329Z,1.38
2017-12-02T05:04:27.198Z,1.34
2017-12-02T05:05:37.302Z,1.29
2017-12-02T05:06:46.871Z,1.34
2017-12-02T05:07:56.657Z,1.38
2017-12-02T05:09:06.552Z,1.47
2017-12-02T05:10:15.878Z,1.36
2017-12-02T05:11:25.242Z,1.42
2017-12-02T05:12:34.898Z,1.42
2017-12-02T05:13:44.785Z,1.34
2017-12-02T05:14:54.944Z,1.29
2017-12-02T05:16:04.692Z,1.25
2017-12-02T05:17:14.272Z,1.26
2017-12-02T05:18:23.841Z,1.35
2017-12-02T05:19:33.684Z,1.32
2017-12-02T05:20:43.238Z,1.32
2017-12-02T05:21:52.528Z,1.42
2017-12-02T05:23:02.065Z,1.42
2017-12-02T05:24:11.871Z,1.38
2017-12-02T05:25:21.488Z,1.43
2017-12-02T05:26:30.822Z,1.47
2017-12-02T05:27:40.374Z,1.52
2017-12-02T05:28:50.235Z,1.52
2017-12-02T05:30:00.407Z,1.56
2017-12-02T05:31:10.341Z,1.7
2017-12-02T05:32:20.018Z,1.64
2017-12-02T05:33:29.651Z,1.6
2017-12-02T05:34:39.562Z,1.65
2017-12-02T05:35:48.848Z,1.54
2017-12-02T05:36:58.696Z,1.57
2017-12-02T05:38:08.780Z,1.52
2017-12-02T05:39:18.715Z,1.49
2017-12-02T05:40:28.910Z,1.49
2017-12-02T05:41:38.292Z,1.56
2017-12-02T05:42:47.519Z,1.49
2017-12-02T05:43:57.685Z,1.67
2017-12-02T05:45:06.718Z,1.71
2017-12-02T05:46:16.503Z,1.67
2017-12-02T05:47:26.604Z,1.67
2017-12-02T05:48:36.688Z,1.63
2017-12-02T05:49:46.776Z,1.61
2017-12-02T05:50:56.612Z,1.67
2017-12-02T05:52:06.638Z,1.7
2017-12-02T05:53:16.470Z,1.64
2017-12-02T05:54:26.314Z,1.6
2017-12-02T05:55:36.133Z,1.67
2017-12-02T05:56:46.005Z,1.64
2017-12-02T05:57:56.141Z,1.64
2017-12-02T05:59:06.321Z,1.71
2017-12-02T06:00:16.176Z,1.65
2017-12-02T06:01:25.764Z,1.64
2017-12-02T06:02:35.597Z,1.68
2017-12-02T06:03:45.767Z,1.67
2017-12-02T06:04:55.475Z,1.72
2017-12-02T06:06:04.799Z,1.67
2017-12-02T06:07:14.610Z,1.7
2017-12-02T06:08:24.538Z,1.7
2017-12-02T06:09:33.800Z,1.67
2017-12-02T06:10:43.764Z,1.74
2017-12-02T06:11:53.908Z,1.77
2017-12-02T06:13:03.836Z,1.81
2017-12-02T06:14:13.706Z,1.79
2017-12-02T06:15:23.867Z,1.85
2017-12-02T06:16:33.270Z,1.82
2017-12-02T06:17:42.339Z,1.74
2017-12-02T06:18:52.208Z,1.85
2017-12-02T06:20:01.525Z,1.77
2017-12-02T06:21:11.052Z,1.72
2017-12-02T06:22:20.951Z,1.72
2017-12-02T06:23:31.096Z,1.83
2017-12-02T06:24:40.716Z,1.79
2017-12-02T06:25:50.795Z,1.75
2017-12-02T06:27:00.884Z,1.75
2017-12-02T06:28:11.062Z,1.75
2017-12-02T06:29:21.217Z,1.82
2017-12-02T06:30:31.484Z,1.79
2017-12-02T06:31:40.783Z,1.89
2017-12-02T06:32:50.682Z,1.88
2017-12-02T06:34:00.586Z,1.89
2017-12-02T06:35:10.668Z,1.79
2017-12-02T06:36:20.396Z,1.86
2017-12-02T06:37:30.408Z,1.83
2017-12-02T06:38:40.334Z,1.72
2017-12-02T06:39:50.173Z,1.82
2017-12-02T06:40:59.638Z,1.88
2017-12-02T06:42:09.376Z,1.89
2017-12-02T06:43:18.841Z,1.83
2017-12-02T06:44:28.585Z,1.79
2017-12-02T06:45:38.330Z,1.81
2017-12-02T06:46:48.074Z,1.89
2017-12-02T06:47:57.812Z,1.72
2017-12-02T06:49:07.590Z,1.86
2017-12-02T06:50:17.397Z,1.88
2017-12-02T06:51:27.398Z,1.83
2017-12-02T06:52:37.403Z,1.82
2017-12-02T06:53:46.865Z,1.82
2017-12-02T06:54:56.861Z,1.77
2017-12-02T06:56:06.668Z,1.86
2017-12-02T06:57:16.402Z,1.83
2017-12-02T06:58:26.418Z,1.95
2017-12-02T06:59:35.885Z,1.79
2017-12-02T07:00:45.625Z,1.74
2017-12-02T07:01:55.355Z,1.79
2017-12-02T07:03:05.088Z,1.56
2017-12-02T07:04:14.566Z,1.47
2017-12-02T07:05:23.772Z,1.5
2017-12-02T07:06:33.506Z,1.52
2017-12-02T07:07:43.239Z,1.42
2017-12-02T07:08:53.248Z,1.42
2017-12-02T07:10:02.724Z,1.26
2017-12-02T07:11:12.729Z,1.2
2017-12-02T07:12:22.460Z,1.29
2017-12-02T07:13:32.592Z,1.18
2017-12-02T07:14:42.637Z,1.16
2017-12-02T07:15:52.756Z,1.1
2017-12-02T07:17:02.524Z,1.13
2017-12-02T07:18:12.528Z,1.1
2017-12-02T07:19:21.991Z,1.11
2017-12-02T07:20:31.789Z,1.02
2017-12-02T07:21:41.846Z,1.21
2017-12-02T07:22:51.638Z,1.17
2017-12-02T07:24:01.645Z,1.21
2017-12-02T07:25:11.680Z,1.21
2017-12-02T07:26:21.696Z,1.24
2017-12-02T07:27:31.427Z,1.25
2017-12-02T07:28:41.450Z,1.21
2017-12-02T07:29:51.218Z,1.29
2017-12-02T07:31:00.744Z,1.29
2017-12-02T07:32:10.561Z,1.38
2017-12-02T07:33:20.708Z,1.43
2017-12-02T07:34:30.762Z,1.42
2017-12-02T07:35:40.775Z,1.38
2017-12-02T07:36:50.499Z,1.38
2017-12-02T07:38:00.222Z,1.53
2017-12-02T07:39:09.953Z,1.49
2017-12-02T07:40:19.965Z,1.53
2017-12-02T07:41:29.704Z,1.53
2017-12-02T07:42:39.448Z,1.47
2017-12-02T07:43:48.664Z,1.39
2017-12-02T07:44:58.402Z,1.49
2017-12-02T07:46:08.135Z,1.54
2017-12-02T07:47:17.871Z,1.54
2017-12-02T07:48:27.599Z,1.44
2017-12-02T07:49:37.072Z,1.46
2017-12-02T07:50:46.539Z,1.5
2017-12-02T07:51:56.280Z,1.6
2017-12-02T07:53:06.022Z,1.54
2017-12-02T07:54:15.765Z,1.56
2017-12-02T07:55:25.770Z,1.6
2017-12-02T07:56:35.777Z,1.49
2017-12-02T07:57:45.773Z,1.52
2017-12-02T07:58:55.506Z,1.5
2017-12-02T08:00:04.975Z,1.49
2017-12-02T08:01:14.963Z,1.38
2017-12-02T08:02:25.008Z,1.53
2017-12-02T08:03:34.506Z,1.42
2017-12-02T08:04:44.286Z,1.39
2017-12-02T08:05:54.326Z,1.42
2017-12-02T08:07:04.139Z,1.36
2017-12-02T08:08:13.605Z,1.42
2017-12-02T08:09:23.334Z,1.44
2017-12-02T08:10:33.073Z,1.49
2017-12-02T08:11:43.079Z,1.49
2017-12-02T08:12:52.818Z,1.53
2017-12-02T08:14:02.561Z,1.5
2017-12-02T08:15:12.298Z,1.57
2017-12-02T08:16:22.020Z,1.61
2017-12-02T08:17:31.748Z,1.65
2017-12-02T08:18:41.496Z,1.65
2017-12-02T08:19:50.961Z,1.68
2017-12-02T08:21:00.264Z,1.81
2017-12-02T08:22:09.737Z,1.81
2017-12-02T08:23:19.274Z,1.83
2017-12-02T08:24:28.746Z,1.77
2017-12-02T08:25:38.239Z,1.81
2017-12-02T08:26:47.979Z,1.82
2017-12-02T08:27:57.968Z,1.89
2017-12-02T08:29:07.700Z,1.92
2017-12-02T08:30:17.475Z,1.98
2017-12-02T08:31:26.939Z,1.88
2017-12-02T08:32:36.931Z,2.02
2017-12-02T08:33:46.932Z,2.04
2017-12-02T08:34:57.100Z,2.07
2017-12-02T08:36:06.837Z,2.07
2017-12-02T08:37:16.598Z,2.09
2017-12-02T08:38:26.604Z,2.15
2017-12-02T08:39:36.374Z,2.14
2017-12-02T08:40:46.064Z,2.22
2017-12-02T08:41:55.961Z,2.22
2017-12-02T08:43:05.881Z,2.15
2017-12-02T08:44:15.696Z,2.2
2017-12-02T08:45:25.498Z,2.23
2017-12-02T08:46:35.236Z,2.22
2017-12-02T08:47:45.248Z,2.2
2017-12-02T08:48:54.707Z,2.14
2017-12-02T08:50:03.948Z,2.18
2017-12-02T08:51:13.421Z,2.19
2017-12-02T08:52:22.897Z,2.14
2017-12-02T08:53:32.911Z,2.18
2017-12-02T08:54:42.400Z,2.11
2017-12-02T08:55:52.395Z,2.11
2017-12-02T08:57:01.894Z,2.29
2017-12-02T08:58:11.363Z,2.25
2017-12-02T08:59:21.139Z,2.25
2017-12-02T09:00:30.860Z,2.26
2017-12-02T09:01:40.859Z,2.15
2017-12-02T09:02:50.864Z,2.2
2017-12-02T09:04:00.854Z,2.19
2017-12-02T09:05:10.598Z,2.3
2017-12-02T09:06:20.593Z,2.33
2017-12-02T09:07:30.316Z,2.33
2017-12-02T09:08:40.298Z,2.25
2017-12-02T09:09:49.870Z,2.14
2017-12-02T09:10:59.599Z,2.15
2017-12-02T09:12:09.331Z,2.23
2017-12-02T09:13:19.076Z,2.26
2017-12-02T09:14:28.809Z,2.26
2017-12-02T09:15:38.543Z,2.33
2017-12-02T09:16:48.281Z,2.32
2017-12-02T09:17:58.292Z,2.44
2017-12-02T09:19:08.296Z,2.51
2017-12-02T09:20:18.328Z,2.44
2017-12-02T09:21:27.804Z,2.38
2017-12-02T09:22:37.272Z,2.41
2017-12-02T09:23:47.055Z,2.4
2017-12-02T09:24:57.050Z,2.36
2017-12-02T09:26:06.793Z,2.4
2017-12-02T09:27:16.578Z,2.37
2017-12-02T09:28:26.039Z,2.45
2017-12-02T09:29:36.028Z,2.41
2017-12-02T09:30:45.767Z,2.09
2017-12-02T09:31:55.236Z,2.01
2017-12-02T09:33:04.701Z,1.89
2017-12-02T09:34:14.166Z,1.95
2017-12-02T09:35:23.363Z,1.95
2017-12-02T09:36:33.093Z,1.86
2017-12-02T09:37:42.567Z,1.98
2017-12-02T09:38:52.579Z,1.86
2017-12-02T09:40:02.319Z,1.88
2017-12-02T09:41:12.055Z,1.79
2017-12-02T09:42:21.780Z,1.82
2017-12-02T09:43:31.516Z,1.79
2017-12-02T09:44:41.251Z,1.85
2017-12-02T09:45:50.995Z,1.79
2017-12-02T09:47:00.988Z,1.74
2017-12-02T09:48:10.519Z,1.6
2017-12-02T09:49:20.250Z,1.65
2017-12-02T09:50:30.499Z,1.6
2017-12-02T09:51:40.246Z,1.49
2017-12-02T09:52:49.709Z,1.47
2017-12-02T09:53:59.447Z,1.5
2017-12-02T09:55:09.184Z,1.52
2017-12-02T09:56:18.920Z,1.52
2017-12-02T09:57:28.930Z,1.54
2017-12-02T09:58:38.660Z,1.63
2017-12-02T09:59:48.405Z,1.67
2017-12-02T10:00:58.140Z,1.7
2017-12-02T10:02:07.866Z,1.74
2017-12-02T10:03:17.590Z,1.68
2017-12-02T10:04:27.328Z,1.81
2017-12-02T10:05:37.322Z,1.64
2017-12-02T10:06:47.320Z,1.67
2017-12-02T10:07:57.319Z,1.63
2017-12-02T10:09:07.331Z,1.7
2017-12-02T10:10:17.121Z,1.7
2017-12-02T10:11:27.108Z,1.65
2017-12-02T10:12:36.575Z,1.82
2017-12-02T10:13:46.649Z,1.92
2017-12-02T10:14:56.377Z,1.86
2017-12-02T10:16:05.987Z,1.75
2017-12-02T10:17:15.181Z,1.81
2017-12-02T10:18:24.922Z,1.85
2017-12-02T10:19:34.919Z,1.81
2017-12-02T10:20:44.390Z,1.85
2017-12-02T10:21:53.858Z,1.86
2017-12-02T10:23:03.587Z,1.93
2017-12-02T10:24:13.332Z,1.86
2017-12-02T10:25:23.059Z,1.86
2017-12-02T10:26:33.083Z,1.82
2017-12-02T10:27:42.713Z,2.01
2017-12-02T10:28:52.724Z,1.89
2017-12-02T10:30:02.458Z,1.89
2017-12-02T10:31:11.922Z,1.89
2017-12-02T10:32:21.650Z,1.89
2017-12-02T10:33:31.386Z,2.01
2017-12-02T10:34:41.125Z,2.07
2017-12-02T10:35:50.860Z,2.15
2017-12-02T10:36:59.968Z,2.3
2017-12-02T10:38:09.808Z,2.2
2017-12-02T10:39:19.962Z,2.2
2017-12-02T10:40:30.152Z,2.25
2017-12-02T10:41:40.243Z,2.15
2017-12-02T10:42:50.103Z,2.33
2017-12-02T10:44:00.385Z,2.3
2017-12-02T10:45:09.949Z,2.36
2017-12-02T10:46:20.159Z,2.44
2017-12-02T10:47:29.952Z,2.43
2017-12-02T10:48:39.929Z,2.47
2017-12-02T10:49:49.848Z,2.47
2017-12-02T10:50:59.961Z,2.59
2017-12-02T10:52:09.788Z,2.44
2017-12-02T10:53:19.530Z,2.45
2017-12-02T10:54:29.594Z,2.36
2017-12-02T10:55:39.150Z,2.38
2017-12-02T10:56:49.198Z,2.32
2017-12-02T10:57:59.046Z,2.32
2017-12-02T10:59:08.870Z,2.15
2017-12-02T11:00:18.338Z,2.18
2017-12-02T11:01:28.741Z,2.25
2017-12-02T11:02:39.166Z,2.26
2017-12-02T11:03:49.038Z,2.26
2017-12-02T11:04:58.851Z,2.41
2017-12-02T11:06:08.432Z,2.43
2017-12-02T11:07:18.310Z,2.48
2017-12-02T11:08:28.234Z,2.51
2017-12-02T11:09:38.335Z,2.61
2017-12-02T11:10:47.884Z,2.65
2017-12-02T11:11:58.184Z,2.8
2017-12-02T11:13:07.864Z,2.8
2017-12-02T11:14:17.975Z,2.89
2017-12-02T11:15:27.438Z,2.97
2017-12-02T11:16:37.182Z,3.02
2017-12-02T11:17:46.644Z,2.86
2017-12-02T11:18:55.572Z,2.95
2017-12-02T11:20:04.774Z,2.97
2017-12-02T11:21:14.763Z,2.95
2017-12-02T11:22:24.772Z,2.94
2017-12-02T11:23:34.776Z,2.87
2017-12-02T11:24:44.766Z,2.8
2017-12-02T11:25:54.782Z,2.8
2017-12-02T11:27:04.795Z,2.65
2017-12-02T11:28:14.530Z,2.55
2017-12-02T11:29:24.534Z,2.61
2017-12-02T11:30:34.533Z,2.69
2017-12-02T11:31:44.551Z,2.68
2017-12-02T11:32:54.284Z,2.71
2017-12-02T11:34:04.052Z,2.81
2017-12-02T11:35:13.263Z,2.8
2017-12-02T11:36:22.736Z,2.9
2017-12-02T11:37:32.781Z,3.1
2017-12-02T11:38:41.556Z,3.07
2017-12-02T11:39:51.314Z,3.13
2017-12-02T11:41:01.303Z,3.13
2017-12-02T11:42:11.034Z,3.12
2017-12-02T11:43:20.772Z,3.22
2017-12-02T11:44:30.769Z,3.25
2017-12-02T11:45:40.512Z,3.31
2017-12-02T11:46:50.604Z,3.07
2017-12-02T11:48:00.826Z,3.05
2017-12-02T11:49:10.294Z,3.01
2017-12-02T11:50:20.023Z,3.02
2017-12-02T11:51:29.496Z,2.95
2017-12-02T11:52:39.245Z,2.77
2017-12-02T11:53:49.251Z,2.8
2017-12-02T11:54:58.787Z,2.58
2017-12-02T11:56:08.309Z,2.47
2017-12-02T11:57:18.140Z,2.41
2017-12-02T11:58:28.147Z,2.4
2017-12-02T11:59:37.902Z,2.48
2017-12-02T12:00:47.636Z,2.59
2017-12-02T12:01:57.645Z,2.56
2017-12-02T12:03:07.128Z,2.61
2017-12-02T12:04:16.871Z,2.68
2017-12-02T12:05:26.695Z,2.65
2017-12-02T12:06:36.873Z,2.71
2017-12-02T12:07:46.926Z,2.84
2017-12-02T12:08:57.295Z,2.94
2017-12-02T12:10:06.507Z,2.92
2017-12-02T12:11:16.295Z,3.05
2017-12-02T12:12:26.089Z,3.13
2017-12-02T12:13:35.684Z,3.07
2017-12-02T12:14:45.493Z,2.98
2017-12-02T12:15:54.967Z,2.92
2017-12-02T12:17:04.174Z,2.92
2017-12-02T12:18:14.055Z,2.84
2017-12-02T12:19:24.053Z,2.86
2017-12-02T12:20:33.658Z,2.76
2017-12-02T12:21:43.643Z,2.84
2017-12-02T12:22:53.372Z,2.95
2017-12-02T12:24:02.582Z,3.01
2017-12-02T12:25:12.121Z,3.02
2017-12-02T12:26:22.122Z,2.97
2017-12-02T12:27:32.374Z,3.04
2017-12-02T12:28:42.269Z,2.99
2017-12-02T12:29:51.726Z,2.97
2017-12-02T12:31:01.772Z,2.92
2017-12-02T12:32:11.534Z,2.8
2017-12-02T12:33:21.784Z,2.81
2017-12-02T12:34:31.520Z,2.81
2017-12-02T12:35:41.130Z,2.86
2017-12-02T12:36:50.913Z,2.8
2017-12-02T12:38:00.379Z,2.81
2017-12-02T12:39:10.444Z,2.69
2017-12-02T12:40:20.200Z,2.55
2017-12-02T12:41:30.204Z,2.56
2017-12-02T12:42:40.323Z,2.56
2017-12-02T12:43:49.835Z,2.5
2017-12-02T12:44:59.588Z,2.47
2017-12-02T12:46:09.188Z,2.56
2017-12-02T12:47:19.023Z,2.62
2017-12-02T12:48:28.768Z,2.81
2017-12-02T12:49:38.775Z,2.77
2017-12-02T12:50:48.517Z,2.83
2017-12-02T12:51:57.748Z,2.84
2017-12-02T12:53:07.761Z,2.92
2017-12-02T12:54:17.496Z,3.02
2017-12-02T12:55:27.237Z,2.98
2017-12-02T12:56:37.237Z,3.01
2017-12-02T12:57:47.256Z,2.92
2017-12-02T12:58:57.001Z,2.81
2017-12-02T13:00:06.765Z,2.9
2017-12-02T13:01:16.779Z,2.79
2017-12-02T13:02:26.791Z,2.81
2017-12-02T13:03:36.784Z,2.84
2017-12-02T13:04:46.517Z,2.81
2017-12-02T13:05:56.516Z,2.92
2017-12-02T13:07:06.257Z,2.87
2017-12-02T13:08:15.985Z,2.87
2017-12-02T13:09:25.724Z,2.84
2017-12-02T13:10:35.468Z,2.8
2017-12-02T13:11:45.496Z,2.69
2017-12-02T13:12:54.967Z,2.71
2017-12-02T13:14:04.435Z,2.63
2017-12-02T13:15:13.631Z,2.59
2017-12-02T13:16:23.637Z,2.61
2017-12-02T13:17:33.355Z,2.3
2017-12-02T13:18:43.355Z,2.22
2017-12-02T13:19:53.104Z,2.14
2017-12-02T13:21:02.829Z,2.18
2017-12-02T13:22:12.566Z,2.2
2017-12-02T13:23:22.579Z,2.05
2017-12-02T13:24:32.342Z,2.02
2017-12-02T13:25:42.128Z,1.95
2017-12-02T13:26:52.144Z,1.85
2017-12-02T13:28:01.897Z,1.89
2017-12-02T13:29:10.850Z,1.89
2017-12-02T13:30:20.067Z,1.88
2017-12-02T13:31:29.934Z,1.82
2017-12-02T13:32:39.665Z,1.86
2017-12-02T13:33:49.126Z,1.77
2017-12-02T13:34:58.618Z,1.68
2017-12-02T13:36:08.090Z,1.81
2017-12-02T13:37:18.160Z,1.81
2017-12-02T13:38:27.635Z,1.82
2017-12-02T13:39:37.366Z,1.77
2017-12-02T13:40:47.364Z,1.82
2017-12-02T13:41:57.093Z,1.85
2017-12-02T13:43:06.825Z,1.93
2017-12-02T13:44:16.882Z,1.82
2017-12-02T13:45:26.640Z,1.82
2017-12-02T13:46:36.449Z,1.88
2017-12-02T13:47:46.201Z,1.88
2017-12-02T13:48:55.672Z,1.81
2017-12-02T13:50:05.405Z,1.67
2017-12-02T13:51:15.249Z,1.65
2017-12-02T13:52:24.998Z,1.7
2017-12-02T13:53:34.742Z,1.68
2017-12-02T13:54:44.206Z,1.75
2017-12-02T13:55:53.994Z,1.67
2017-12-02T13:57:03.749Z,1.63
2017-12-02T13:58:13.475Z,1.72
2017-12-02T13:59:23.517Z,1.65
2017-12-02T14:00:32.993Z,1.67
2017-12-02T14:01:42.729Z,1.61
2017-12-02T14:02:52.207Z,1.65
2017-12-02T14:04:01.984Z,1.77
2017-12-02T14:05:11.924Z,1.75
2017-12-02T14:06:21.929Z,1.72
2017-12-02T14:07:31.628Z,1.74
2017-12-02T14:08:41.176Z,1.79
2017-12-02T14:09:51.441Z,1.7
2017-12-02T14:11:01.033Z,1.65
2017-12-02T14:12:10.504Z,1.7
2017-12-02T14:13:19.977Z,1.71
2017-12-02T14:14:29.710Z,1.77
2017-12-02T14:15:39.199Z,1.75
2017-12-02T14:16:48.671Z,1.79
2017-12-02T14:17:58.729Z,1.81
2017-12-02T14:19:08.241Z,1.89
2017-12-02T14:20:18.277Z,1.81
2017-12-02T14:21:28.301Z,1.9
2017-12-02T14:22:38.312Z,1.92
2017-12-02T14:23:48.352Z,1.93
2017-12-02T14:24:58.357Z,1.83
2017-12-02T14:26:07.572Z,1.83
2017-12-02T14:27:17.316Z,1.81
2017-12-02T14:28:27.045Z,1.85
2017-12-02T14:29:37.039Z,1.86
2017-12-02T14:30:47.062Z,1.86
2017-12-02T14:31:57.075Z,1.77
2017-12-02T14:33:06.297Z,1.67
2017-12-02T14:34:16.297Z,1.67
2017-12-02T14:35:26.039Z,1.63
2017-12-02T14:36:35.794Z,1.65
2017-12-02T14:37:45.579Z,1.67
2017-12-02T14:38:55.410Z,1.67
2017-12-02T14:40:05.148Z,1.68
2017-12-02T14:41:14.880Z,1.81
2017-12-02T14:42:24.431Z,1.81
2017-12-02T14:43:33.988Z,1.79
2017-12-02T14:44:43.576Z,1.83
2017-12-02T14:45:53.739Z,1.77
2017-12-02T14:47:03.058Z,1.81
2017-12-02T14:48:13.010Z,1.77
2017-12-02T14:49:22.637Z,1.81
2017-12-02T14:50:32.637Z,1.79
2017-12-02T14:51:42.168Z,1.72
2017-12-02T14:52:52.567Z,1.71
2017-12-02T14:54:02.458Z,1.7
2017-12-02T14:55:12.454Z,1.65
2017-12-02T14:56:22.225Z,1.74
2017-12-02T14:57:31.708Z,1.7
2017-12-02T14:58:41.187Z,1.63
2017-12-02T14:59:51.243Z,1.68
2017-12-02T15:01:01.254Z,1.71
2017-12-02T15:02:10.826Z,1.74
2017-12-02T15:03:20.815Z,1.79
2017-12-02T15:04:30.963Z,1.75
2017-12-02T15:05:40.978Z,1.77
2017-12-02T15:06:50.977Z,1.68
2017-12-02T15:08:00.988Z,1.77
2017-12-02T15:09:11.023Z,1.79
2017-12-02T15:10:20.585Z,1.81
2017-12-02T15:11:30.358Z,1.68
2017-12-02T15:12:40.262Z,1.65
2017-12-02T15:13:50.187Z,1.75
2017-12-02T15:15:00.424Z,1.81
2017-12-02T15:16:09.955Z,1.74
2017-12-02T15:17:19.820Z,1.82
2017-12-02T15:18:29.566Z,1.93
2017-12-02T15:19:39.719Z,1.85
2017-12-02T15:20:49.823Z,1.9
2017-12-02T15:21:59.302Z,2.02
2017-12-02T15:23:09.310Z,1.89
2017-12-02T15:24:19.063Z,2.09
2017-12-02T15:25:28.798Z,2.05
2017-12-02T15:26:38.551Z,2.05
2017-12-02T15:27:48.547Z,2.09
2017-12-02T15:28:58.564Z,2.02
2017-12-02T15:30:08.059Z,1.9
2017-12-02T15:31:18.112Z,1.83